Weather at Sugar Valley Airport

Public forecast

Using degrees Fahrenheit for public forecast. Weather courtesy of forecast.io.

Closest aviation weather report (METAR) to Sugar Valley Airport

Closest report is Davidson County Airport, 15.9 nm (29.4 km) SE. Retrieved 2020/09/27 03:35 UTC (0 seconds ago):

KEXX 270335Z AUTO 00000KT 1/4SM FG VV002 15/15 RMK AO2 T01530153

Closest aviation forecast (TAF) to Sugar Valley Airport

Closest forecast is Smith Reynolds Airport, 16.6 nm (30.8 km) ENE. Retrieved 2020-09-27 00:30 UTC (3 hours ago):

TAF KINT 262327Z 2700/2724 VRB03KT P6SM SCT035 FM270800 00000KT 1/2SM FG BKN009 FM271400 20003KT P6SM BKN020 FM272000 20005KT P6SM BKN035